Xingren, China
Current Conditions -  °F | °C
As of 11:00 PM on Friday 28 Nov 2014 (Local Time) from ZUGY Reporting Station
Broken Clouds Broken Clouds  
Wind Chill: 52°   Ceiling: 3000
Heat Index: 52°   Visibility: 4mi
Dew Point: 52°   Wind: 2mph
Humidity: 100%   Direction: NA
Pressure: 29.85"   Gusts: NA
Location:  25.43°N, 105.18°E
Report Text: ZUGY 281500Z VRB01MPS 6000 BKN030 11/11 Q1011 WS RWY01 NOSIG
Loading
Personal Weather Stations






























Interactive Weather Map New forecast layout! Learn more

10-Day Weather Forecast

Advertisements
Track Severe Weather on mobile